createdAt,value
2022-11-12T00:02:17.132Z,6.10
2022-11-12T00:05:02.379Z,6.20
2022-11-12T00:07:47.788Z,6.20
2022-11-12T00:10:34.289Z,6.20
2022-11-12T00:13:19.745Z,6.10
2022-11-12T00:16:05.741Z,6.10
2022-11-12T00:18:51.162Z,6.00
2022-11-12T00:21:36.730Z,5.90
2022-11-12T00:24:22.200Z,5.90
2022-11-12T00:27:07.763Z,5.90
2022-11-12T00:29:53.393Z,6.00
2022-11-12T00:32:39.093Z,6.00
2022-11-12T00:35:24.182Z,5.90
2022-11-12T00:38:09.705Z,5.90
2022-11-12T00:41:00.042Z,5.80
2022-11-12T00:43:45.506Z,5.80
2022-11-12T00:46:31.278Z,5.80
2022-11-12T00:49:17.246Z,5.80
2022-11-12T00:52:02.525Z,5.70
2022-11-12T00:54:48.782Z,5.70
2022-11-12T00:57:34.035Z,5.70
2022-11-12T01:00:20.325Z,5.60
2022-11-12T01:03:05.777Z,5.60
2022-11-12T01:05:51.358Z,5.60
2022-11-12T01:08:37.462Z,5.60
2022-11-12T01:11:26.866Z,5.60
2022-11-12T01:14:12.397Z,5.50
2022-11-12T01:16:58.036Z,5.50
2022-11-12T01:19:43.515Z,5.50
2022-11-12T01:22:29.143Z,5.50
2022-11-12T01:25:14.450Z,5.50
2022-11-12T01:27:59.603Z,5.40
2022-11-12T01:30:45.010Z,5.50
2022-11-12T01:33:30.484Z,5.50
2022-11-12T01:36:18.334Z,5.50
2022-11-12T01:39:08.839Z,5.50
2022-11-12T01:41:54.065Z,5.50
2022-11-12T01:44:45.734Z,5.50
2022-11-12T01:47:35.118Z,5.50
2022-11-12T01:50:29.066Z,5.50
2022-11-12T01:53:14.887Z,5.50
2022-11-12T01:56:03.606Z,5.50
2022-11-12T01:58:55.836Z,5.60
2022-11-12T02:01:41.278Z,5.70
2022-11-12T02:04:27.906Z,5.80
2022-11-12T02:07:13.657Z,5.90
2022-11-12T02:10:02.817Z,6.00
2022-11-12T02:13:09.850Z,6.20
2022-11-12T02:15:56.210Z,6.20
2022-11-12T02:18:41.739Z,6.40
2022-11-12T02:21:27.686Z,6.50
2022-11-12T02:24:13.115Z,6.60
2022-11-12T02:26:59.301Z,6.70
2022-11-12T02:29:47.194Z,6.70
2022-11-12T02:32:32.631Z,6.90
2022-11-12T02:35:17.799Z,6.90
2022-11-12T02:38:04.814Z,6.90
2022-11-12T02:40:50.278Z,7.00
2022-11-12T02:43:36.974Z,7.00
2022-11-12T02:46:22.401Z,7.10
2022-11-12T02:49:07.883Z,7.10
2022-11-12T02:51:53.476Z,7.20
2022-11-12T02:54:38.898Z,7.30
2022-11-12T02:57:24.879Z,7.30
2022-11-12T03:00:13.461Z,7.30
2022-11-12T03:02:59.053Z,7.40
2022-11-12T03:05:46.572Z,7.40
2022-11-12T03:08:31.854Z,7.50
2022-11-12T03:11:18.039Z,7.50
2022-11-12T03:14:03.770Z,7.60
2022-11-12T03:16:49.373Z,7.60
2022-11-12T03:19:34.551Z,7.60
2022-11-12T03:22:20.062Z,7.70
2022-11-12T03:25:07.575Z,7.70
2022-11-12T03:28:11.787Z,7.80
2022-11-12T03:30:59.948Z,7.80
2022-11-12T03:33:46.000Z,7.80
2022-11-12T03:36:31.554Z,7.80
2022-11-12T03:39:16.774Z,7.80
2022-11-12T03:42:03.125Z,7.80
2022-11-12T03:44:48.216Z,7.80
2022-11-12T03:47:33.653Z,7.80
2022-11-12T03:50:22.757Z,7.80
2022-11-12T03:53:08.440Z,7.90
2022-11-12T03:55:54.317Z,7.90
2022-11-12T03:58:39.497Z,7.80
2022-11-12T04:01:25.003Z,7.80
2022-11-12T04:04:10.578Z,7.70
2022-11-12T04:07:14.462Z,7.70
2022-11-12T04:09:59.963Z,7.60
2022-11-12T04:13:03.908Z,7.50
2022-11-12T04:16:09.137Z,7.50
2022-11-12T04:19:16.813Z,7.50
2022-11-12T04:22:11.455Z,7.40
2022-11-12T04:25:15.095Z,7.30
2022-11-12T04:28:00.517Z,7.10
2022-11-12T04:30:45.975Z,7.10
2022-11-12T04:33:31.327Z,7.20
2022-11-12T04:36:16.774Z,7.20
2022-11-12T04:39:02.155Z,7.10
2022-11-12T04:42:06.003Z,7.10
2022-11-12T04:45:01.364Z,7.10
2022-11-12T04:47:46.845Z,7.00
2022-11-12T04:50:32.603Z,7.00
2022-11-12T04:53:17.951Z,6.90
2022-11-12T04:56:03.858Z,6.90
2022-11-12T04:58:49.061Z,6.90
2022-11-12T05:01:34.550Z,6.90
2022-11-12T05:04:20.156Z,6.80
2022-11-12T05:07:05.396Z,6.70
2022-11-12T05:09:51.119Z,6.70
2022-11-12T05:12:36.767Z,6.60
2022-11-12T05:15:22.387Z,6.60
2022-11-12T05:18:07.684Z,6.60
2022-11-12T05:20:53.657Z,6.50
2022-11-12T05:23:39.299Z,6.50
2022-11-12T05:26:24.802Z,6.40
2022-11-12T05:29:10.144Z,6.40
2022-11-12T05:31:56.235Z,6.40
2022-11-12T05:34:41.978Z,6.40
2022-11-12T05:37:27.625Z,6.30
2022-11-12T05:40:13.624Z,6.20
2022-11-12T05:42:59.197Z,6.20
2022-11-12T05:45:44.910Z,6.10
2022-11-12T05:48:31.042Z,6.00
2022-11-12T05:51:17.040Z,6.00
2022-11-12T05:54:02.485Z,6.00
2022-11-12T05:56:48.079Z,5.90
2022-11-12T05:59:33.385Z,5.90
2022-11-12T06:02:18.894Z,5.90
2022-11-12T06:05:04.573Z,5.80
2022-11-12T06:07:49.785Z,5.80
2022-11-12T06:10:35.318Z,5.90
2022-11-12T06:13:23.606Z,5.70
2022-11-12T06:16:09.627Z,5.70
2022-11-12T06:18:54.947Z,5.60
2022-11-12T06:21:40.317Z,5.50
2022-11-12T06:24:30.662Z,5.50
2022-11-12T06:27:19.313Z,5.50
2022-11-12T06:30:06.822Z,5.50
2022-11-12T06:32:52.784Z,5.50
2022-11-12T06:35:42.727Z,5.40
2022-11-12T06:38:34.492Z,5.40
2022-11-12T06:41:19.763Z,5.40
2022-11-12T06:44:05.615Z,5.40
2022-11-12T06:46:50.866Z,5.30
2022-11-12T06:49:36.659Z,5.30
2022-11-12T06:52:22.148Z,5.30
2022-11-12T06:55:08.459Z,5.40
2022-11-12T06:57:53.861Z,5.40
2022-11-12T07:00:39.359Z,5.40
2022-11-12T07:03:24.925Z,5.40
2022-11-12T07:06:14.628Z,5.40
2022-11-12T07:08:59.959Z,5.40
2022-11-12T07:11:45.418Z,5.40
2022-11-12T07:14:30.816Z,5.40
2022-11-12T07:17:16.290Z,5.40
2022-11-12T07:20:03.862Z,5.40
2022-11-12T07:22:52.333Z,5.40
2022-11-12T07:25:37.750Z,5.40
2022-11-12T07:28:24.671Z,5.50
2022-11-12T07:31:12.821Z,5.50
2022-11-12T07:33:58.385Z,5.50
2022-11-12T07:36:43.636Z,5.50
2022-11-12T07:39:29.065Z,5.50
2022-11-12T07:42:14.621Z,5.60
2022-11-12T07:45:00.301Z,5.60
2022-11-12T07:47:45.814Z,5.60
2022-11-12T07:50:31.391Z,5.70
2022-11-12T07:53:16.854Z,5.70
2022-11-12T07:56:04.658Z,5.80
2022-11-12T07:58:51.104Z,5.80
2022-11-12T08:01:41.747Z,5.90
2022-11-12T08:04:27.483Z,5.90
2022-11-12T08:07:13.133Z,6.00
2022-11-12T08:09:58.909Z,6.00
2022-11-12T08:12:44.245Z,6.10
2022-11-12T08:15:30.361Z,6.20
2022-11-12T08:18:15.832Z,6.20
2022-11-12T08:21:08.040Z,6.30
2022-11-12T08:23:53.255Z,6.40
2022-11-12T08:26:39.045Z,6.50
2022-11-12T08:29:24.219Z,6.70
2022-11-12T08:32:09.635Z,6.70
2022-11-12T08:34:54.952Z,6.80
2022-11-12T08:37:40.492Z,6.90
2022-11-12T08:40:27.946Z,7.10
2022-11-12T08:43:13.290Z,7.30
2022-11-12T08:46:00.322Z,7.20
2022-11-12T08:48:45.483Z,7.30
2022-11-12T08:51:30.998Z,7.60
2022-11-12T08:54:16.591Z,7.50
2022-11-12T08:57:01.965Z,7.70
2022-11-12T08:59:47.517Z,7.80
2022-11-12T09:02:32.909Z,8.00
2022-11-12T09:05:18.392Z,8.10
2022-11-12T09:08:11.634Z,8.50
2022-11-12T09:10:59.086Z,8.80
2022-11-12T09:13:44.434Z,8.80
2022-11-12T09:16:29.877Z,9.00
2022-11-12T09:19:15.651Z,9.30
2022-11-12T09:22:00.914Z,9.10
2022-11-12T09:24:46.567Z,9.00
2022-11-12T09:27:31.916Z,9.00
2022-11-12T09:30:17.555Z,9.00
2022-11-12T09:33:02.987Z,9.60
2022-11-12T09:35:49.497Z,9.70
2022-11-12T09:38:34.941Z,9.70
2022-11-12T09:41:29.745Z,9.70
2022-11-12T09:44:24.192Z,9.70
2022-11-12T09:47:36.131Z,10.20
2022-11-12T09:51:09.628Z,10.30
2022-11-12T09:54:13.702Z,10.70
2022-11-12T09:56:59.281Z,10.70
2022-11-12T09:59:44.695Z,10.80
2022-11-12T10:02:48.906Z,10.90
2022-11-12T10:05:41.221Z,11.00
2022-11-12T10:08:53.529Z,11.30
2022-11-12T10:12:19.614Z,11.50
2022-11-12T10:15:50.105Z,11.50
2022-11-12T10:19:01.529Z,11.70
2022-11-12T10:22:11.877Z,11.70
2022-11-12T10:25:08.554Z,11.70
2022-11-12T10:27:56.102Z,11.80
2022-11-12T10:30:43.143Z,11.90
2022-11-12T10:33:32.376Z,12.20
2022-11-12T10:36:35.483Z,12.30
2022-11-12T10:39:44.776Z,12.30
2022-11-12T10:42:29.827Z,12.20
2022-11-12T10:45:23.832Z,12.20
2022-11-12T10:48:33.301Z,12.40
2022-11-12T10:51:30.242Z,12.60
2022-11-12T10:54:27.598Z,12.50
2022-11-12T10:57:26.066Z,12.50
2022-11-12T11:00:14.799Z,12.40
2022-11-12T11:03:07.560Z,12.50
2022-11-12T11:06:05.520Z,12.60
2022-11-12T11:08:54.402Z,12.70
2022-11-12T11:11:51.519Z,12.70
2022-11-12T11:14:38.250Z,12.90
2022-11-12T11:17:23.422Z,12.90
2022-11-12T11:20:24.604Z,13.00
2022-11-12T11:23:34.235Z,13.10
2022-11-12T11:26:46.115Z,13.10
2022-11-12T11:29:49.206Z,13.10
2022-11-12T11:33:00.710Z,13.10
2022-11-12T11:36:33.994Z,13.10
2022-11-12T11:39:46.674Z,13.20
2022-11-12T11:43:01.988Z,13.20
2022-11-12T11:46:18.271Z,13.20
2022-11-12T11:50:09.558Z,13.30
2022-11-12T11:53:15.674Z,13.30
2022-11-12T11:56:16.427Z,13.30
2022-11-12T11:59:28.400Z,13.20
2022-11-12T12:02:56.698Z,13.30
2022-11-12T12:06:21.551Z,13.40
2022-11-12T12:09:21.997Z,13.30
2022-11-12T12:12:26.831Z,13.40
2022-11-12T12:15:55.804Z,13.40
2022-11-12T12:19:13.269Z,13.50
2022-11-12T12:22:03.655Z,13.60
2022-11-12T12:25:07.780Z,13.60
2022-11-12T12:28:38.628Z,13.70
2022-11-12T12:31:32.731Z,13.70
2022-11-12T12:34:41.782Z,13.70
2022-11-12T12:37:42.411Z,13.90
2022-11-12T12:40:49.835Z,14.00
2022-11-12T12:43:45.368Z,14.10
2022-11-12T12:46:39.329Z,14.20
2022-11-12T12:49:36.384Z,14.10
2022-11-12T12:52:21.849Z,14.20
2022-11-12T12:55:42.751Z,14.20
2022-11-12T12:58:40.121Z,14.20
2022-11-12T13:01:34.121Z,14.30
2022-11-12T13:04:57.877Z,14.40
2022-11-12T13:07:48.489Z,14.40
2022-11-12T13:10:44.470Z,14.50
2022-11-12T13:13:39.871Z,14.40
2022-11-12T13:16:50.950Z,14.50
2022-11-12T13:19:45.600Z,14.50
2022-11-12T13:22:50.428Z,14.40
2022-11-12T13:25:37.282Z,14.50
2022-11-12T13:28:22.485Z,14.40
2022-11-12T13:31:29.498Z,14.50
2022-11-12T13:34:33.426Z,14.60
2022-11-12T13:37:22.955Z,14.70
2022-11-12T13:40:36.139Z,14.70
2022-11-12T13:43:41.167Z,14.70
2022-11-12T13:46:33.824Z,14.80
2022-11-12T13:49:19.983Z,14.80
2022-11-12T13:52:06.317Z,14.90
2022-11-12T13:55:04.862Z,14.80
2022-11-12T13:57:55.509Z,14.90
2022-11-12T14:00:40.708Z,15.00
2022-11-12T14:03:34.501Z,14.90
2022-11-12T14:06:46.944Z,15.00
2022-11-12T14:10:00.085Z,15.00
2022-11-12T14:13:21.687Z,15.10
2022-11-12T14:16:43.152Z,15.10
2022-11-12T14:19:50.231Z,15.10
2022-11-12T14:22:48.643Z,15.10
2022-11-12T14:25:33.799Z,15.20
2022-11-12T14:28:35.143Z,15.10
2022-11-12T14:31:25.589Z,15.10
2022-11-12T14:34:29.882Z,15.10
2022-11-12T14:37:42.643Z,15.00
2022-11-12T14:40:32.753Z,15.00
2022-11-12T14:43:32.360Z,14.90
2022-11-12T14:46:32.370Z,14.90
2022-11-12T14:49:28.223Z,14.80
2022-11-12T14:52:33.616Z,14.70
2022-11-12T14:55:31.752Z,14.70
2022-11-12T14:58:19.232Z,14.70
2022-11-12T15:04:45.335Z,14.60
2022-11-12T15:07:51.176Z,14.50
2022-11-12T15:10:42.755Z,14.30
2022-11-12T15:13:39.003Z,14.30
2022-11-12T15:16:33.040Z,14.20
2022-11-12T15:19:25.117Z,14.20
2022-11-12T15:22:21.938Z,14.00
2022-11-12T15:25:22.963Z,13.90
2022-11-12T15:28:24.090Z,13.80
2022-11-12T15:31:22.151Z,13.70
2022-11-12T15:34:32.685Z,13.60
2022-11-12T15:37:18.198Z,13.50
2022-11-12T15:40:15.778Z,13.40
2022-11-12T15:43:02.067Z,13.40
2022-11-12T15:45:55.924Z,13.20
2022-11-12T15:48:41.471Z,13.10
2022-11-12T15:51:27.144Z,12.90
2022-11-12T15:54:12.462Z,12.90
2022-11-12T15:56:58.056Z,12.80
2022-11-12T15:59:45.374Z,12.70
2022-11-12T16:02:31.517Z,12.50
2022-11-12T16:05:18.861Z,12.40
2022-11-12T16:08:04.927Z,12.30
2022-11-12T16:10:50.526Z,12.10
2022-11-12T16:13:36.639Z,12.10
2022-11-12T16:16:22.447Z,11.90
2022-11-12T16:19:14.951Z,11.80
2022-11-12T16:22:04.014Z,11.70
2022-11-12T16:24:49.196Z,11.60
2022-11-12T16:27:37.759Z,11.50
2022-11-12T16:30:30.562Z,11.50
2022-11-12T16:33:15.825Z,11.30
2022-11-12T16:36:01.389Z,11.30
2022-11-12T16:38:47.271Z,11.30
2022-11-12T16:41:32.534Z,11.20
2022-11-12T16:44:18.067Z,11.10
2022-11-12T16:47:05.287Z,11.10
2022-11-12T16:49:50.542Z,11.10
2022-11-12T16:52:36.025Z,11.00
2022-11-12T16:55:22.138Z,10.90
2022-11-12T16:58:07.633Z,11.00
2022-11-12T17:00:53.341Z,10.90
2022-11-12T17:03:38.810Z,10.90
2022-11-12T17:06:36.928Z,10.80
2022-11-12T17:09:22.310Z,10.80
2022-11-12T17:12:08.490Z,10.60
2022-11-12T17:14:54.030Z,10.50
2022-11-12T17:17:39.535Z,10.60
2022-11-12T17:20:25.036Z,10.50
2022-11-12T17:23:10.494Z,10.40
2022-11-12T17:26:05.297Z,10.40
2022-11-12T17:28:57.519Z,10.40
2022-11-12T17:31:49.416Z,10.30
2022-11-12T17:34:34.930Z,10.30
2022-11-12T17:37:20.184Z,10.30
2022-11-12T17:40:06.834Z,10.20
2022-11-12T17:42:53.709Z,10.30
2022-11-12T17:45:38.932Z,10.30
2022-11-12T17:48:25.051Z,10.40
2022-11-12T17:51:17.989Z,10.30
2022-11-12T17:54:03.642Z,10.50
2022-11-12T17:56:48.786Z,10.60
2022-11-12T17:59:34.418Z,10.50
2022-11-12T18:02:20.091Z,10.50
2022-11-12T18:05:05.687Z,10.60
2022-11-12T18:07:50.918Z,10.60
2022-11-12T18:10:37.181Z,10.40
2022-11-12T18:13:23.293Z,10.40
2022-11-12T18:16:25.075Z,10.30
2022-11-12T18:19:12.414Z,10.10
2022-11-12T18:21:57.635Z,10.10
2022-11-12T18:24:43.000Z,10.00
2022-11-12T18:27:28.542Z,10.00
2022-11-12T18:30:19.113Z,9.90
2022-11-12T18:33:05.351Z,9.90
2022-11-12T18:36:24.098Z,9.80
2022-11-12T18:39:09.927Z,9.80
2022-11-12T18:41:55.033Z,9.70
2022-11-12T18:44:40.797Z,9.70
2022-11-12T18:47:26.368Z,9.70
2022-11-12T18:50:11.806Z,9.60
2022-11-12T18:52:57.551Z,9.60
2022-11-12T18:55:43.287Z,9.50
2022-11-12T18:58:34.933Z,9.50
2022-11-12T19:01:23.503Z,9.30
2022-11-12T19:04:11.112Z,9.20
2022-11-12T19:06:56.744Z,9.20
2022-11-12T19:09:41.921Z,9.20
2022-11-12T19:12:27.467Z,9.20
2022-11-12T19:15:12.866Z,9.10
2022-11-12T19:17:58.441Z,9.10
2022-11-12T19:20:44.021Z,9.00
2022-11-12T19:23:30.334Z,9.10
2022-11-12T19:26:17.439Z,8.90
2022-11-12T19:29:02.770Z,8.90
2022-11-12T19:31:48.414Z,8.90
2022-11-12T19:34:34.324Z,8.80
2022-11-12T19:37:32.996Z,8.80
2022-11-12T19:40:19.665Z,8.80
2022-11-12T19:43:04.782Z,8.80
2022-11-12T19:45:50.324Z,8.70
2022-11-12T19:48:36.150Z,8.80
2022-11-12T19:51:21.592Z,8.80
2022-11-12T19:54:07.731Z,8.70
2022-11-12T19:56:53.242Z,8.70
2022-11-12T19:59:40.078Z,8.60
2022-11-12T20:02:25.767Z,8.60
2022-11-12T20:05:10.998Z,8.50
2022-11-12T20:07:56.771Z,8.50
2022-11-12T20:10:42.034Z,8.40
2022-11-12T20:13:28.387Z,8.30
2022-11-12T20:16:22.276Z,8.30
2022-11-12T20:19:10.171Z,8.30
2022-11-12T20:21:55.860Z,8.30
2022-11-12T20:24:41.067Z,8.20
2022-11-12T20:27:26.745Z,8.20
2022-11-12T20:30:12.864Z,8.20
2022-11-12T20:32:58.307Z,8.20
2022-11-12T20:35:43.619Z,8.10
2022-11-12T20:38:29.231Z,8.10
2022-11-12T20:41:18.445Z,8.10
2022-11-12T20:44:04.188Z,8.00
2022-11-12T20:46:49.655Z,7.90
2022-11-12T20:49:34.839Z,7.90
2022-11-12T20:52:20.147Z,7.90
2022-11-12T20:55:06.711Z,7.90
2022-11-12T20:57:52.136Z,7.90
2022-11-12T21:00:38.787Z,7.90
2022-11-12T21:03:24.335Z,7.90
2022-11-12T21:06:13.218Z,7.90
2022-11-12T21:09:00.346Z,7.80
2022-11-12T21:11:45.963Z,7.80
2022-11-12T21:14:31.455Z,7.80
2022-11-12T21:17:16.794Z,7.80
2022-11-12T21:20:02.210Z,7.70
2022-11-12T21:22:47.711Z,7.70
2022-11-12T21:25:40.542Z,7.60
2022-11-12T21:28:26.349Z,7.70
2022-11-12T21:31:17.681Z,7.60
2022-11-12T21:34:04.392Z,7.60
2022-11-12T21:36:49.892Z,7.60
2022-11-12T21:39:35.356Z,7.60
2022-11-12T21:42:20.841Z,7.50
2022-11-12T21:45:07.054Z,7.50
2022-11-12T21:47:53.617Z,7.40
2022-11-12T21:50:39.052Z,7.50
2022-11-12T21:53:24.682Z,7.50
2022-11-12T21:56:16.996Z,7.40
2022-11-12T21:59:03.892Z,7.40
2022-11-12T22:01:49.334Z,7.30
2022-11-12T22:04:34.801Z,7.30
2022-11-12T22:07:20.371Z,7.30
2022-11-12T22:10:06.599Z,7.20
2022-11-12T22:13:19.749Z,7.20
2022-11-12T22:15:57.667Z,7.10
2022-11-12T22:18:46.144Z,7.10
2022-11-12T22:21:39.378Z,7.10
2022-11-12T22:24:25.652Z,7.10
2022-11-12T22:27:11.232Z,7.00
2022-11-12T22:29:56.891Z,7.10
2022-11-12T22:32:42.342Z,7.10
2022-11-12T22:35:27.489Z,7.10
2022-11-12T22:38:13.587Z,7.20
2022-11-12T22:41:11.513Z,7.20
2022-11-12T22:44:00.092Z,7.10
2022-11-12T22:46:45.390Z,7.10
2022-11-12T22:49:30.961Z,7.10
2022-11-12T22:52:16.320Z,7.00
2022-11-12T22:55:01.595Z,7.00
2022-11-12T22:57:47.001Z,7.00
2022-11-12T23:00:32.647Z,7.00
2022-11-12T23:03:18.082Z,7.00
2022-11-12T23:06:06.158Z,7.00
2022-11-12T23:08:53.474Z,6.90
2022-11-12T23:11:38.674Z,6.90
2022-11-12T23:14:24.386Z,6.90
2022-11-12T23:17:09.848Z,6.90
2022-11-12T23:19:55.098Z,6.80
2022-11-12T23:22:40.487Z,6.90
2022-11-12T23:25:26.191Z,6.90
2022-11-12T23:28:11.594Z,6.90
2022-11-12T23:30:56.970Z,6.90
2022-11-12T23:33:54.728Z,6.80
2022-11-12T23:36:39.997Z,6.80
2022-11-12T23:39:25.624Z,6.70
2022-11-12T23:42:10.811Z,6.80
2022-11-12T23:44:56.398Z,6.80
2022-11-12T23:47:41.866Z,6.70
2022-11-12T23:50:27.281Z,6.80
2022-11-12T23:53:13.448Z,6.80
2022-11-12T23:55:58.955Z,7.00
2022-11-12T23:58:44.523Z,7.00
